Tiempo atmosférico en la estación meteorológica de Villablino, León (958 m.)



Fecha
DESCASC
Temp. máxima en grados centígrados (hora)
DESCASC
Temp. mínima en grados centígrados (hora)
DESCASC
Temp. media en grados centígrados
DESCASC
Racha de viento máxima en m/sg (hora)
DESCASC
Velocidad máxima media en intervalos de 10 minutos(hora)
DESCASC
Precipitaciones diarias en mm
DESCASC
Precipitaciones de 00:00 a 06:00 en mm
DESCASC
Precipitaciones de 06:00 a 12:00 en mm
DESCASC
Precipitaciones de 12:00 a 18:00 en mm
DESCASC
Precipitaciones de 18:00 a 24:00 en mm
DESCASC
17-09-2020 23.4 (16:00) 12.7 (01:50) 18 11.67 (20:50) 6.94 (20:50) 0.4 0 0 0 0.4
16-09-2020 29.1 (16:50) 5 (08:10) 17.1 6.39 (17:20) 3.33 (17:10) 0 0 0 0 0
15-09-2020 27.1 (16:10) 8.5 (08:20) 17.8 6.11 (18:00) 3.33 (14:10) 0 0 0 0 0
14-09-2020 28.6 (16:00) 10.3 (00:00) 19.5 8.89 (17:40) 4.17 (16:40) 1 0 0.2 0.4 0.4
13-09-2020 32.8 (15:50) 5.9 (00:00) 19.3 6.67 (18:30) 3.33 (14:50) 0 0 0 0 0
12-09-2020 31.7 (16:10) 6.8 (00:00) 19.3 6.39 (17:30) 3.06 (17:50) 0 0 0 0 0
11-09-2020 29.8 (15:40) 6.2 (00:00) 18 6.11 (18:00) 3.89 (14:40) 0 0 0 0 0
10-09-2020 28.6 (14:40) 5.4 (00:00) 17 6.67 (18:10) 3.61 (19:40) 0 0 0 0 0
09-09-2020 28.5 (14:30) 3.2 (00:00) 15.9 8.33 (15:10) 4.17 (20:10) 0 0 0 0 0
08-09-2020 28.1 (17:20) 2.9 (00:00) 15.5 7.5 (14:40) 5 (15:00) 0 0 0 0 0
07-09-2020 26.9 (15:40) 2.5 (08:00) 14.7 8.61 (19:10) 5.56 (19:00) 0 0 0 0 0
06-09-2020 25 (15:10) 7.7 (00:00) 16.3 11.39 (16:20) 7.22 (16:30) 0 0 0 0 0
05-09-2020 26.5 (14:50) 8 (00:00) 17.3 11.39 (16:40) 6.39 (16:40) 0 0 0 0 0
04-09-2020 31.7 (17:10) 7 (00:00) 19.4 8.61 (16:50) 4.72 (14:20) 0 0 0 0 0
03-09-2020 29.8 (17:40) 6.2 (00:00) 18 7.5 (16:30) 4.17 (16:30) 0 0 0 0 0
02-09-2020 27 (17:40) 5.2 (00:00) 16.1 7.5 (20:10) 5 (20:10) 0 0 0 0 0
01-09-2020 22.8 (15:20) 7.3 (00:00) 15 9.72 (17:30) 5.28 (20:20) 0 0 0 0 0
31-08-2020 22.7 (16:30) 1.3 (00:00) 12 8.61 (14:00) 5.56 (14:00) 0 0 0 0 0
30-08-2020 18 (17:00) 6.4 (00:00) 12.2 7.78 (18:30) 4.72 (18:40) 0 0 0 0 0
29-08-2020 13.2 (14:40) 7.7 (00:00) 10.4 11.39 (15:30) 5.28 (15:30) 13.2 1 5.8 5.8 0.6
28-08-2020 18.6 (17:40) 8.1 (00:00) 13.4 8.33 (18:20) 4.17 (18:20) 1.8 0 0 0 1.8
27-08-2020 29.3 (15:10) 9.8 (00:00) 19.5 8.89 (17:00) 5 (17:20) 0 0 0 0 0
26-08-2020 30.2 (17:10) 8.5 (00:00) 19.4 7.22 (18:50) 3.89 (16:40) -- 0 -- 0 0
25-08-2020 29.9 (16:50) 7.4 (00:00) 18.6 7.78 (14:20) 5 (14:20) 0 0 0 0 0
24-08-2020 29 (18:10) 10.5 (00:00) 19.8 9.17 (15:30) 6.11 (15:00) 0 0 0 0 0
23-08-2020 27.2 (14:30) 6 (00:00) 16.6 8.89 (19:50) 5.28 (19:50) 0 0 0 0 0
22-08-2020 26.2 (16:50) 8.3 (00:00) 17.3 8.61 (20:50) 5 (20:50) 0 0 0 0 0
21-08-2020 23.7 (15:50) 5.8 (00:00) 14.8 11.67 (17:10) 7.22 (17:40) 0 0 0 0 0
20-08-2020 25.2 (15:50) 15.8 (00:00) 20.5 19.72 (16:40) 10 (16:50) 4.2 3.2 0.4 0.4 0.2

Gráficas

Temp. máximas Temp. mínimas Temp. medias Precipitaciones Rachas de viento máximas Velocidades máximas media en intervalos de 10 minutos

Datos horarios

Fecha y hora oficial Temperatura (ºC) Velocidad del viento (km/h) Dirección del viento Racha (km/h) Dirección de racha Precipitación (mm) Presión (hPa) Tendencia (hPa) Humedad (%)
2020-09-18 23:00:00 12.7 5 Norte 14 Nordeste 0.4 -- -- 91
2020-09-18 22:00:00 13.2 10 Norte 15 Norte 0.2 -- -- 89
2020-09-18 21:00:00 14.2 8 Sur 17 Sur 0.2 -- -- 82
2020-09-18 20:00:00 15.5 0 Calma 15 Sur 0.4 -- -- 77
2020-09-18 19:00:00 18.4 7 Sur 22 Sur 0.6 -- -- 58
2020-09-18 18:00:00 19.8 5 Noroeste 12 Noroeste 0.8 -- -- 54
2020-09-18 17:00:00 19.4 6 Noroeste 14 Norte 1 -- -- 59
2020-09-18 16:00:00 20.8 6 Sur 21 Sudoeste 1.2 -- -- 52
2020-09-18 15:00:00 19.9 10 Sudoeste 39 Este 0.8 -- -- 51
2020-09-18 14:00:00 19.4 14 Sur 25 Sudoeste 0.8 -- -- 53
2020-09-18 13:00:00 21.1 9 Sur 23 Sudeste 0.2 -- -- 52
2020-09-18 12:00:00 19.2 4 Sur 7 Sudeste 0 -- -- 75
2020-09-18 11:00:00 16.7 0 Calma 5 Sur 0.2 -- -- 82
2020-09-18 10:00:00 13.8 3 Nordeste 5 Norte 0 -- -- 97
2020-09-18 09:00:00 13.2 0 Calma 6 Oeste 0 -- -- 97
2020-09-18 08:00:00 13.2 3 Este 6 Norte 0.2 -- -- 97
2020-09-18 07:00:00 13.2 2 Noroeste 8 Noroeste 0 -- -- 96
2020-09-18 06:00:00 13.4 2 Norte 10 Sudoeste 0 -- -- 97
2020-09-18 05:00:00 13.4 2 Oeste 8 Oeste 0 -- -- 98
2020-09-18 04:00:00 13.3 3 Sudoeste 8 Nordeste 0 -- -- 98
2020-09-18 03:00:00 13.5 0 Calma 7 Sur 0 -- -- 97
2020-09-18 02:00:00 13.8 2 Oeste 14 Norte 0.2 -- -- 94
2020-09-18 01:00:00 13.5 5 Noroeste 9 Noroeste 0 -- -- 97
2020-09-18 00:00:00 13.8 4 Nordeste 11 Norte 0 -- -- 96
2020-09-17 23:00:00 13.7 6 Norte 11 Norte 0.2 -- -- 96
2020-09-17 22:00:00 13.9 3 Oeste 24 Sur 0.2 -- -- 92
2020-09-17 21:00:00 16.6 19 Sudoeste 42 Sur 0 -- -- 72
2020-09-17 20:00:00 20 6 Nordeste 21 Este 0 -- -- 64
2020-09-17 19:00:00 20.6 8 Este 21 Este 0 -- -- 61
2020-09-17 18:00:00 21 8 Este 26 Este 0 -- -- 61
2020-09-17 17:00:00 21.5 12 Este 31 Sur 0 -- -- 60
2020-09-17 16:00:00 23.4 12 Sudeste 27 Sur 0 -- -- 53
2020-09-17 15:00:00 20.6 13 Nordeste 26 Este 0 -- -- 63
2020-09-17 14:00:00 23.3 12 Sur 34 Sur 0 -- -- 54
2020-09-17 13:00:00 21.5 9 Sudeste 22 Sudoeste 0 -- -- 55
2020-09-17 12:00:00 21.6 4 Sur 26 Sur 0 -- -- 57
2020-09-17 11:00:00 21.3 6 Este 24 Este 0 -- -- 53
2020-09-17 10:00:00 19.2 6 Nordeste 24 Este 0 -- -- 61
2020-09-17 09:00:00 18 6 Este 25 Sudeste 0 -- -- 63
2020-09-17 08:00:00 16.9 4 Norte 15 Noroeste 0 -- -- 69
2020-09-17 07:00:00 17.6 4 Nordeste 26 Este 0 -- -- 67
2020-09-17 06:00:00 17.4 4 Nordeste 14 Norte 0 -- -- 66
2020-09-17 05:00:00 14.7 4 Nordeste 16 Norte 0 -- -- 72
2020-09-17 04:00:00 13.8 3 Norte 13 Noroeste 0 -- -- 79
2020-09-17 03:00:00 13.5 4 Norte 11 Noroeste 0 -- -- 81
2020-09-17 02:00:00 13 3 Norte 6 Noroeste 0 -- -- 84
2020-09-17 01:00:00 13.1 3 Noroeste 8 Norte 0 -- -- 84
2020-09-17 00:00:00 13.6 2 Norte 6 Norte 0 -- -- 82
2020-09-16 23:00:00 14.7 2 Norte 8 Norte 0 -- -- 79
2020-09-16 22:00:00 16.3 3 Noroeste 10 Norte 0 -- -- 72
2020-09-16 21:00:00 18.1 5 Norte 13 Norte 0 -- -- 63
2020-09-16 20:00:00 21.9 3 Sudoeste 16 Sudoeste 0 -- -- 47
2020-09-16 19:00:00 24.1 5 Este 22 Sudeste 0 -- -- 37
2020-09-16 18:00:00 27.2 6 Este 23 Este 0 -- -- 31
2020-09-16 17:00:00 27.9 6 Este 23 Este 0 -- -- 31
2020-09-16 16:00:00 28.8 6 Este 16 Sur 0 -- -- 30
2020-09-16 15:00:00 27.2 6 Nordeste 11 Este 0 -- -- 32
2020-09-16 14:00:00 26.6 7 Sur 15 Sur 0 -- -- 35
2020-09-16 13:00:00 23.9 6 Sur 11 Sur 0 -- -- 47
2020-09-16 12:00:00 19.4 3 Sudeste 10 Sur 0 -- -- 61
2020-09-16 11:00:00 15.7 3 Sur 7 Sur 0 -- -- 70
2020-09-16 10:00:00 10.9 0 Calma 6 Este 0 -- -- 96
2020-09-16 09:00:00 5.8 3 Norte 6 Norte 0 -- -- 99
2020-09-16 08:00:00 5.2 2 Norte 5 Nordeste 0 -- -- 99
2020-09-16 07:00:00 5.4 2 Norte 5 Norte 0 -- -- 99
2020-09-16 06:00:00 6.1 2 Norte 6 Norte 0 -- -- 99
2020-09-16 05:00:00 6.4 2 Noroeste 6 Noroeste 0 -- -- 98
2020-09-16 04:00:00 7.3 2 Norte 6 Norte 0 -- -- 98
2020-09-16 03:00:00 8 3 Nordeste 6 Norte 0 -- -- 98
2020-09-16 02:00:00 8.8 2 Norte 6 Norte 0 -- -- 97
2020-09-16 01:00:00 9.7 0 Calma 6 Norte 0 -- -- 95
2020-09-16 00:00:00 11.4 3 Nordeste 7 Nordeste 0 -- -- 92
2020-09-15 23:00:00 12.8 0 Calma 4 Noroeste 0 -- -- 88
2020-09-15 22:00:00 14.7 2 Nordeste 6 Noroeste 0 -- -- 84
2020-09-15 21:00:00 17.2 0 Calma 6 Norte 0 -- -- 73
2020-09-15 20:00:00 20 4 Sur 11 Oeste 0 -- -- 63
2020-09-15 19:00:00 22.5 2 Oeste 15 Sur 0 -- -- 59
2020-09-15 18:00:00 25 9 Sur 22 Sur 0 -- -- 45
2020-09-15 17:00:00 24.5 4 Noroeste 11 Oeste 0 -- -- 42
2020-09-15 16:00:00 24.8 8 Sudoeste 18 Sur 0 -- -- 43
2020-09-15 15:00:00 25.6 6 Sur 21 Sur 0 -- -- 41
2020-09-15 14:00:00 24.1 8 Sur 19 Sur 0 -- -- 46
2020-09-15 13:00:00 22.8 6 Sur 10 Sur 0 -- -- 55
2020-09-15 12:00:00 19.7 6 Sur 12 Sur 0 -- -- 69
2020-09-15 11:00:00 16.6 5 Sur 8 Sur 0 -- -- 78
2020-09-15 10:00:00 13.5 2 Sudeste 4 Sudeste 0 -- -- 94
2020-09-15 09:00:00 8.9 0 Calma 5 Este 0 -- -- 99
2020-09-15 08:00:00 8.9 0 Calma 4 Nordeste 0 -- -- 99
2020-09-15 07:00:00 9.4 0 Calma 8 Norte 0 -- -- 99
2020-09-15 06:00:00 10.1 3 Norte 6 Este 0 -- -- 98
2020-09-15 05:00:00 10.4 2 Norte 6 Este 0 -- -- 98
2020-09-15 04:00:00 11.6 3 Norte 6 Noroeste 0 -- -- 96
2020-09-15 03:00:00 11.5 2 Sudoeste 9 Norte 0 -- -- 96
2020-09-15 02:00:00 11.8 4 Norte 8 Norte 0 -- -- 96
2020-09-15 01:00:00 11.7 0 Calma 6 Noroeste 0 -- -- 95
2020-09-15 00:00:00 12.4 2 Noroeste 10 Norte 0 -- -- 95
2020-09-14 23:00:00 13.8 3 Norte 9 Noroeste 0 -- -- 91
2020-09-14 22:00:00 15.3 0 Calma 12 Sudoeste 0 -- -- 87
2020-09-14 21:00:00 18.4 8 Sudoeste 22 Norte 0 -- -- 73
2020-09-14 20:00:00 19.8 7 Norte 19 Nordeste 0 -- -- 70
2020-09-14 19:00:00 20.4 5 Norte 14 Norte 0.4 -- -- 74
2020-09-14 18:00:00 21.9 4 Norte 32 Sur 0.4 -- -- 66
2020-09-14 17:00:00 26.8 9 Sur 27 Sur 0 -- -- 44
2020-09-14 16:00:00 28.6 10 Sudeste 24 Este 0 -- -- 38
2020-09-14 15:00:00 24.6 11 Este 27 Este 0 -- -- 50
2020-09-14 14:00:00 21.8 10 Este 29 Este 0 -- -- 55
2020-09-14 13:00:00 20.7 4 Norte 16 Noroeste 0 -- -- 61
2020-09-14 12:00:00 18.1 7 Noroeste 16 Sur 0.2 -- -- 71
2020-09-14 11:00:00 18.8 6 Sur 13 Sur 0 -- -- 69
2020-09-14 10:00:00 17.3 0 Calma 5 Este 0 -- -- 72
2020-09-14 09:00:00 11.7 2 Norte 7 Noroeste 0 -- -- 92
2020-09-14 08:00:00 10.3 3 Oeste 7 Oeste 0 -- -- 94
2020-09-14 07:00:00 10.3 3 Norte 6 Norte 0 -- -- 95
2020-09-14 06:00:00 10.9 2 Norte 5 Oeste 0 -- -- 93
2020-09-14 05:00:00 11.3 2 Nordeste 5 Noroeste 0 -- -- 92
2020-09-14 04:00:00 11.6 3 Norte 6 Noroeste 0 -- -- 92
2020-09-14 03:00:00 12.1 2 Norte 5 Norte 0 -- -- 90
2020-09-14 02:00:00 12.8 2 Norte 5 Oeste 0 -- -- 88
2020-09-14 01:00:00 13.8 2 Norte 7 Sudeste 0 -- -- 84
2020-09-14 00:00:00 14.4 3 Norte 5 Norte 0 -- -- 82
2020-09-13 23:00:00 15.1 2 Norte 6 Este 0 -- -- 80
2020-09-13 22:00:00 16.6 0 Calma 5 Sudeste 0 -- -- 74
2020-09-13 21:00:00 18.2 3 Norte 6 Norte 0 -- -- 69
2020-09-13 20:00:00 21.5 2 Este 6 Este 0 -- -- 59
2020-09-13 19:00:00 25.8 4 Noroeste 24 Sur 0 -- -- 39
2020-09-13 18:00:00 31.7 4 Noroeste 8 Sur 0 -- -- 30
2020-09-13 17:00:00 30.8 4 Sudoeste 19 Sudoeste 0 -- -- 27
2020-09-13 16:00:00 32.4 9 Sur 19 Sur 0 -- -- 23
2020-09-13 15:00:00 31.4 10 Sur 22 Sur 0 -- -- 25
2020-09-13 14:00:00 29.2 7 Sur 9 Sur 0 -- -- 32
2020-09-13 13:00:00 25.2 4 Sur 7 Sur 0 -- -- 39
2020-09-13 12:00:00 21.5 2 Sudeste 6 Sur 0 -- -- 49
2020-09-13 11:00:00 17.7 3 Sudeste 5 Sur 0 -- -- 56
2020-09-13 10:00:00 14 2 Sudeste 4 Este 0 -- -- 77
2020-09-13 09:00:00 6.4 0 Calma 5 Norte 0 -- -- 98
2020-09-13 08:00:00 6 2 Norte 6 Norte 0 -- -- 99
2020-09-13 07:00:00 6.3 0 Calma 5 Norte 0 -- -- 98
2020-09-13 06:00:00 7.1 2 Norte 6 Norte 0 -- -- 98
2020-09-13 05:00:00 7.3 2 Nordeste 5 Norte 0 -- -- 98
2020-09-13 04:00:00 7.9 0 Calma 6 Norte 0 -- -- 96
2020-09-13 03:00:00 9.1 3 Norte 6 Norte 0 -- -- 95
2020-09-13 02:00:00 9.8 2 Sudoeste 9 Nordeste 0 -- -- 94
2020-09-13 01:00:00 10.8 4 Nordeste 6 Este 0 -- -- 92
2020-09-13 00:00:00 12.4 3 Nordeste 8 Norte 0 -- -- 89
2020-09-12 23:00:00 13.8 4 Norte 9 Norte 0 -- -- 86
2020-09-12 22:00:00 15.5 3 Norte 9 Norte 0 -- -- 81
2020-09-12 21:00:00 18.1 2 Este 5 Nordeste 0 -- -- 70
2020-09-12 20:00:00 22.4 4 Noroeste 17 Noroeste 0 -- -- 55
2020-09-12 19:00:00 24.5 9 Noroeste 19 Noroeste 0 -- -- 45
2020-09-12 18:00:00 28.6 10 Noroeste 23 Noroeste 0 -- -- 38
2020-09-12 17:00:00 30.8 5 Noroeste 12 Sur 0 -- -- 25
2020-09-12 16:00:00 31.3 4 Sur 14 Sur 0 -- -- 24
2020-09-12 15:00:00 29.3 5 Noroeste 14 Noroeste 0 -- -- 26
2020-09-12 14:00:00 28.7 6 Sur 10 Sur 0 -- -- 29
2020-09-12 13:00:00 24.2 5 Sur 8 Sur 0 -- -- 45
2020-09-12 12:00:00 21.2 3 Sudeste 6 Sur 0 -- -- 56
2020-09-12 11:00:00 18.5 3 Sudeste 5 Sudeste 0 -- -- 63
2020-09-12 10:00:00 14.7 2 Sudeste 4 Este 0 -- -- 82
2020-09-12 09:00:00 7.4 2 Noroeste 4 Norte 0 -- -- 99
2020-09-12 08:00:00 7.1 0 Calma 5 Norte 0 -- -- 99
2020-09-12 07:00:00 7.3 0 Calma 6 Norte 0 -- -- 98
2020-09-12 06:00:00 7.7 2 Este 5 Noroeste 0 -- -- 98
2020-09-12 05:00:00 8.6 3 Norte 6 Nordeste 0 -- -- 97
2020-09-12 04:00:00 9.4 3 Norte 5 Norte 0 -- -- 96
2020-09-12 03:00:00 10.1 0 Calma 8 Norte 0 -- -- 94
2020-09-12 02:00:00 11.5 3 Nordeste 7 Norte 0 -- -- 90
2020-09-12 01:00:00 11.5 2 Norte 7 Norte 0 -- -- 91
2020-09-12 00:00:00 13.4 5 Norte 8 Norte 0 -- -- 83
2020-09-11 23:00:00 14.3 4 Norte 11 Norte 0 -- -- 84
2020-09-11 22:00:00 16 2 Norte 9 Norte 0 -- -- 81
2020-09-11 21:00:00 18.8 4 Noroeste 17 Noroeste 0 -- -- 70
2020-09-11 20:00:00 22.3 6 Noroeste 16 Noroeste 0 -- -- 56
2020-09-11 19:00:00 23.8 6 Noroeste 22 Noroeste 0 -- -- 50
2020-09-11 18:00:00 26.1 10 Noroeste 22 Noroeste 0 -- -- 43
2020-09-11 17:00:00 28.5 10 Noroeste 19 Noroeste 0 -- -- 36
2020-09-11 16:00:00 29.4 8 Oeste 17 Noroeste 0 -- -- 34
2020-09-11 15:00:00 28.3 12 Sur 21 Sudoeste 0 -- -- 34
2020-09-11 14:00:00 26.9 13 Sudoeste 21 Sur 0 -- -- 37
2020-09-11 13:00:00 23.7 3 Sudoeste 8 Sur 0 -- -- 47
2020-09-11 12:00:00 20 3 Sudeste 7 Sur 0 -- -- 59
2020-09-11 11:00:00 17.8 3 Sudeste 5 Sur 0 -- -- 64
2020-09-11 10:00:00 13.6 3 Sudeste 4 Sudeste 0 -- -- 89
2020-09-11 09:00:00 6.7 0 Calma 5 Nordeste 0 -- -- 99
2020-09-11 08:00:00 6.3 0 Calma 6 Norte 0 -- -- 99
2020-09-11 07:00:00 6.7 0 Calma 4 Este 0 -- -- 99
2020-09-11 06:00:00 7.2 0 Calma 5 Norte 0 -- -- 98
2020-09-11 05:00:00 7.6 0 Calma 5 Norte 0 -- -- 98
2020-09-11 04:00:00 8.6 3 Norte 6 Nordeste 0 -- -- 98
2020-09-11 03:00:00 9 0 Calma 5 Norte 0 -- -- 97
2020-09-11 02:00:00 9.6 2 Norte 6 Norte 0 -- -- 94
2020-09-11 01:00:00 11 5 Norte 9 Norte 0 -- -- 93
2020-09-11 00:00:00 12 3 Norte 8 Nordeste 0 -- -- 89
2020-09-10 23:00:00 13.3 4 Norte 9 Norte 0 -- -- 84
2020-09-10 22:00:00 15.5 7 Norte 10 Norte 0 -- -- 79
2020-09-10 21:00:00 16.9 2 Noroeste 12 Noroeste 0 -- -- 74
2020-09-10 20:00:00 21.3 8 Noroeste 22 Noroeste 0 -- -- 54
2020-09-10 19:00:00 22.2 10 Noroeste 24 Noroeste 0 -- -- 54
2020-09-10 18:00:00 25.9 10 Noroeste 21 Noroeste 0 -- -- 45
2020-09-10 17:00:00 25.8 9 Noroeste 22 Noroeste 0 -- -- 44
2020-09-10 16:00:00 27.4 10 Noroeste 23 Noroeste 0 -- -- 40
2020-09-10 15:00:00 28.6 4 Sur 12 Sur 0 -- -- 31
2020-09-10 14:00:00 26.3 6 Sur 11 Sur 0 -- -- 34
2020-09-10 13:00:00 23.5 4 Sur 8 Sur 0 -- -- 46
2020-09-10 12:00:00 19.5 4 Sur 6 Sur 0 -- -- 57
2020-09-10 11:00:00 16.7 3 Sudeste 6 Sur 0 -- -- 66
2020-09-10 10:00:00 13.5 2 Sudeste 5 Este 0 -- -- 88
2020-09-10 09:00:00 5.9 0 Calma 4 Norte 0 -- -- 99
2020-09-10 08:00:00 5.5 3 Noroeste 6 Norte 0 -- -- 99
2020-09-10 07:00:00 6.3 4 Norte 6 Norte 0 -- -- 99
2020-09-10 06:00:00 6.4 2 Sudeste 5 Norte 0 -- -- 98
2020-09-10 05:00:00 7.3 2 Nordeste 4 Este 0 -- -- 98
2020-09-10 04:00:00 7.7 0 Calma 6 Norte 0 -- -- 98
2020-09-10 03:00:00 8.8 2 Este 6 Norte 0 -- -- 97
2020-09-10 02:00:00 9.2 0 Calma 5 Norte 0 -- -- 97
2020-09-10 01:00:00 10.3 3 Nordeste 6 Nordeste 0 -- -- 95
2020-09-10 00:00:00 11.7 3 Norte 9 Norte 0 -- -- 92
2020-09-09 23:00:00 13.2 2 Noroeste 10 Norte 0 -- -- 87
2020-09-09 22:00:00 15.3 5 Norte 11 Norte 0 -- -- 79
2020-09-09 21:00:00 17.4 3 Norte 26 Noroeste 0 -- -- 70
2020-09-09 20:00:00 21.2 14 Noroeste 26 Noroeste 0 -- -- 54
2020-09-09 19:00:00 21.7 14 Noroeste 30 Noroeste 0 -- -- 53
2020-09-09 18:00:00 25.7 10 Noroeste 23 Oeste 0 -- -- 43
2020-09-09 17:00:00 26.7 10 Noroeste 23 Noroeste 0 -- -- 41
2020-09-09 16:00:00 26.2 12 Noroeste 30 Noroeste 0 -- -- 39
2020-09-09 15:00:00 27.1 9 Noroeste 19 Norte 0 -- -- 33
2020-09-09 14:00:00 26 6 Sur 10 Sur 0 -- -- 35
2020-09-09 13:00:00 22.2 4 Sur 8 Sudeste 0 -- -- 43
2020-09-09 12:00:00 19.2 3 Sudeste 6 Sur 0 -- -- 48
2020-09-09 11:00:00 16 3 Sudeste 6 Sur 0 -- -- 57
2020-09-09 10:00:00 11.8 3 Sudeste 4 Este 0 -- -- 76
2020-09-09 09:00:00 3.8 2 Sur 4 Sudeste 0 -- -- 98
2020-09-09 08:00:00 3.5 0 Calma 6 Norte 0 -- -- 99
2020-09-09 07:00:00 3.9 3 Norte 5 Norte 0 -- -- 98
2020-09-09 06:00:00 4.5 3 Norte 5 Norte 0 -- -- 98
2020-09-09 05:00:00 4.9 3 Norte 5 Norte 0 -- -- 97
2020-09-09 04:00:00 5.5 3 Norte 6 Norte 0 -- -- 96
2020-09-09 03:00:00 6 0 Calma 7 Norte 0 -- -- 95
2020-09-09 02:00:00 6.9 2 Nordeste 6 Norte 0 -- -- 93
2020-09-09 01:00:00 7.5 0 Calma 6 Noroeste 0 -- -- 92
2020-09-09 00:00:00 8.7 0 Calma 5 Este 0 -- -- 90
2020-09-08 23:00:00 10.1 3 Norte 6 Norte 0 -- -- 85
2020-09-08 22:00:00 12.4 4 Norte 7 Norte 0 -- -- 77
2020-09-08 21:00:00 14.1 0 Calma 3 Nordeste 0 -- -- 70
2020-09-08 20:00:00 16.6 0 Calma 6 Oeste 0 -- -- 59
2020-09-08 19:00:00 20 2 Oeste 8 Noroeste 0 -- -- 40
2020-09-08 18:00:00 26.5 4 Oeste 15 Sur 0 -- -- 30
2020-09-08 17:00:00 27.4 9 Sudoeste 21 Sudoeste 0 -- -- 28
2020-09-08 16:00:00 26.1 14 Sur 24 Sur 0 -- -- 31
2020-09-08 15:00:00 24.3 18 Sur 27 Sur 0 -- -- 38
2020-09-08 14:00:00 23.2 13 Sur 20 Sur 0 -- -- 39
2020-09-08 13:00:00 21.3 7 Sur 16 Sur 0 -- -- 44
2020-09-08 12:00:00 16.5 5 Sur 8 Sur 0 -- -- 50
2020-09-08 11:00:00 14.4 3 Sudeste 5 Sudeste 0 -- -- 52
2020-09-08 10:00:00 11.1 3 Sudeste 5 Sudeste 0 -- -- 69
2020-09-08 09:00:00 3.3 2 Sudoeste 4 Nordeste 0 -- -- 98
2020-09-08 08:00:00 2.9 2 Nordeste 4 Norte 0 -- -- 98
2020-09-08 07:00:00 3.4 2 Nordeste 8 Nordeste 0 -- -- 98
2020-09-08 06:00:00 3.8 2 Norte 6 Norte 0 -- -- 98
2020-09-08 05:00:00 4.5 2 Norte 5 Norte 0 -- -- 98
2020-09-08 04:00:00 5.2 0 Calma 5 Nordeste 0 -- -- 98
2020-09-08 03:00:00 6 0 Calma 5 Norte 0 -- -- 97
2020-09-08 02:00:00 7.4 3 Nordeste 9 Nordeste 0 -- -- 94
2020-09-08 01:00:00 8.7 4 Norte 12 Norte 0 -- -- 91
2020-09-08 00:00:00 10.3 5 Norte 18 Norte 0 -- -- 89
2020-09-07 23:00:00 11.8 6 Norte 17 Nordeste 0 -- -- 86
2020-09-07 22:00:00 13.5 7 Norte 14 Norte 0 -- -- 83
2020-09-07 21:00:00 15.3 7 Norte 15 Norte 0 -- -- 78
2020-09-07 20:00:00 18.7 11 Norte 31 Noroeste 0 -- -- 63
2020-09-07 19:00:00 20.3 20 Noroeste 31 Noroeste 0 -- -- 57
2020-09-07 18:00:00 24.3 12 Noroeste 20 Noroeste 0 -- -- 41
2020-09-07 17:00:00 25.1 9 Nordeste 20 Este 0 -- -- 37
2020-09-07 16:00:00 26.6 8 Este 18 Sudeste 0 -- -- 31
2020-09-07 15:00:00 26 7 Este 19 Este 0 -- -- 31
2020-09-07 14:00:00 23.7 6 Este 17 Este 0 -- -- 33
2020-09-07 13:00:00 21 6 Nordeste 16 Norte 0 -- -- 40
2020-09-07 12:00:00 19.2 5 Nordeste 13 Nordeste 0 -- -- 43
2020-09-07 11:00:00 16.5 3 Este 7 Este 0 -- -- 57
2020-09-07 10:00:00 12.9 2 Este 4 Este 0 -- -- 64
2020-09-07 09:00:00 3.1 0 Calma 5 Norte 0 -- -- 98
2020-09-07 08:00:00 2.5 2 Noroeste 6 Norte 0 -- -- 98
2020-09-07 07:00:00 3.3 3 Norte 5 Norte 0 -- -- 98
2020-09-07 06:00:00 3.8 4 Norte 7 Norte 0 -- -- 97
2020-09-07 05:00:00 4.4 3 Norte 6 Nordeste 0 -- -- 97
2020-09-07 04:00:00 4.8 0 Calma 6 Norte 0 -- -- 96
2020-09-07 03:00:00 5.4 0 Calma 7 Nordeste 0 -- -- 94
2020-09-07 02:00:00 6 0 Calma 5 Noroeste 0 -- -- 95
2020-09-07 01:00:00 7.4 5 Norte 7 Nordeste 0 -- -- 95
2020-09-07 00:00:00 8.3 0 Calma 10 Nordeste 0 -- -- 91
2020-09-06 23:00:00 10.5 7 Norte 13 Norte 0 -- -- 85
2020-09-06 22:00:00 11.8 5 Noroeste 17 Noroeste 0 -- -- 83
2020-09-06 21:00:00 13.4 5 Norte 18 Norte 0 -- -- 78
2020-09-06 20:00:00 15.6 6 Noroeste 19 Norte 0 -- -- 69
2020-09-06 19:00:00 16.6 12 Norte 32 Norte 0 -- -- 66
2020-09-06 18:00:00 20.9 13 Norte 34 Noroeste 0 -- -- 57
2020-09-06 17:00:00 21.4 19 Norte 41 Noroeste 0 -- -- 52
2020-09-06 16:00:00 22.6 19 Norte 33 Noroeste 0 -- -- 57
2020-09-06 15:00:00 24.8 8 Noroeste 17 Noroeste 0 -- -- 48
2020-09-06 14:00:00 22.5 10 Norte 17 Noroeste 0 -- -- 56
2020-09-06 13:00:00 21.2 7 Norte 12 Norte 0 -- -- 57
2020-09-06 12:00:00 19 8 Norte 14 Norte 0 -- -- 62
2020-09-06 11:00:00 18.9 5 Este 9 Sudeste 0 -- -- 64
2020-09-06 10:00:00 15.7 5 Este 10 Nordeste 0 -- -- 72
2020-09-06 09:00:00 9.6 6 Nordeste 15 Nordeste 0 -- -- 97
2020-09-06 08:00:00 7.7 2 Norte 6 Norte 0 -- -- 97
2020-09-06 07:00:00 9.1 3 Noroeste 16 Nordeste 0 -- -- 95
2020-09-06 06:00:00 9.3 5 Norte 12 Este 0 -- -- 97
2020-09-06 05:00:00 9.3 5 Norte 12 Norte 0 -- -- 95
2020-09-06 04:00:00 9.7 2 Norte 18 Norte 0 -- -- 95
2020-09-06 03:00:00 10.4 3 Norte 14 Norte 0 -- -- 95
2020-09-06 02:00:00 11.5 12 Norte 17 Norte 0 -- -- 93
2020-09-06 01:00:00 11.8 9 Norte 15 Norte 0 -- -- 93
2020-09-06 00:00:00 12.9 4 Norte 12 Nordeste 0 -- -- 89
2020-09-05 23:00:00 13.6 5 Norte 15 Norte 0 -- -- 89
2020-09-05 22:00:00 14.4 6 Norte 15 Norte 0 -- -- 88
2020-09-05 21:00:00 15.9 11 Noroeste 25 Noroeste 0 -- -- 79
2020-09-05 20:00:00 16.6 10 Norte 27 Norte 0 -- -- 78
2020-09-05 19:00:00 17.7 13 Norte 24 Norte 0 -- -- 76
2020-09-05 18:00:00 21.5 14 Norte 27 Noroeste 0 -- -- 63
2020-09-05 17:00:00 22.6 18 Noroeste 41 Norte 0 -- -- 58
2020-09-05 16:00:00 23.2 18 Norte 30 Noroeste 0 -- -- 60
2020-09-05 15:00:00 26.1 10 Norte 18 Noroeste 0 -- -- 53
2020-09-05 14:00:00 24.9 7 Norte 20 Norte 0 -- -- 53
2020-09-05 13:00:00 24.8 5 Oeste 13 Noroeste 0 -- -- 53
2020-09-05 12:00:00 21.9 5 Sur 9 Sur 0 -- -- 58
2020-09-05 11:00:00 19.8 3 Sudeste 6 Sudeste 0 -- -- 63
2020-09-05 10:00:00 16.8 2 Sudeste 6 Norte 0 -- -- 70
2020-09-05 09:00:00 9.4 3 Norte 7 Norte 0 -- -- 99
2020-09-05 08:00:00 8 2 Oeste 8 Norte 0 -- -- 99
2020-09-05 07:00:00 9 4 Norte 8 Nordeste 0 -- -- 99
2020-09-05 06:00:00 8.9 2 Noroeste 7 Norte 0 -- -- 98
2020-09-05 05:00:00 9.6 0 Calma 6 Norte 0 -- -- 97
2020-09-05 04:00:00 10.7 3 Nordeste 8 Norte 0 -- -- 96
2020-09-05 03:00:00 11.7 4 Norte 6 Noroeste 0 -- -- 97
2020-09-05 02:00:00 12.4 3 Norte 6 Noroeste 0 -- -- 95
2020-09-05 01:00:00 13.4 4 Norte 7 Norte 0 -- -- 94
2020-09-05 00:00:00 14.5 0 Calma 6 Nordeste 0 -- -- 92
2020-09-04 23:00:00 17.1 3 Norte 10 Norte 0 -- -- 82
2020-09-04 22:00:00 18.1 3 Noroeste 17 Noroeste 0 -- -- 81
2020-09-04 21:00:00 20.6 6 Noroeste 13 Noroeste 0 -- -- 69
2020-09-04 20:00:00 23.9 6 Noroeste 26 Noroeste 0 -- -- 52
2020-09-04 19:00:00 24.9 11 Noroeste 18 Noroeste 0 -- -- 36
2020-09-04 18:00:00 30.4 4 Noroeste 11 Sur 0 -- -- 35
2020-09-04 17:00:00 31.2 8 Sur 31 Sur 0 -- -- 26
2020-09-04 16:00:00 30.8 8 Sudeste 26 Sur 0 -- -- 26
2020-09-04 15:00:00 30.5 13 Sudeste 31 Sur 0 -- -- 28
2020-09-04 14:00:00 29.3 9 Sur 25 Sur 0 -- -- 27
2020-09-04 13:00:00 24.5 4 Sur 10 Sur 0 -- -- 47
2020-09-04 12:00:00 21.6 3 Sudeste 7 Sur 0 -- -- 52
2020-09-04 11:00:00 17.7 4 Sur 6 Sur 0 -- -- 67
2020-09-04 10:00:00 15.3 2 Sur 4 Sur 0 -- -- 71
2020-09-04 09:00:00 9.2 0 Calma 4 Nordeste 0 -- -- 99
2020-09-04 08:00:00 7 2 Norte 5 Noroeste 0 -- -- 99
2020-09-04 07:00:00 7.9 2 Norte 6 Norte 0 -- -- 99
2020-09-04 06:00:00 8.4 0 Calma 4 Norte 0 -- -- 99
2020-09-04 05:00:00 9.9 4 Norte 9 Norte 0 -- -- 99
2020-09-04 04:00:00 9.9 2 Nordeste 6 Norte 0 -- -- 98
2020-09-04 03:00:00 10.7 0 Calma 6 Nordeste 0 -- -- 98
2020-09-04 02:00:00 11.9 4 Norte 6 Nordeste 0 -- -- 97
2020-09-04 01:00:00 12.6 3 Noroeste 8 Norte 0 -- -- 96
2020-09-04 00:00:00 13.9 4 Norte 7 Norte 0 -- -- 94
2020-09-03 23:00:00 14.8 0 Calma 6 Norte 0 -- -- 91
2020-09-03 22:00:00 16.9 2 Noroeste 8 Nordeste 0 -- -- 82
2020-09-03 21:00:00 18.1 2 Este 8 Noroeste 0 -- -- 74
2020-09-03 20:00:00 20.9 3 Sur 19 Noroeste 0 -- -- 60
2020-09-03 19:00:00 23.9 12 Noroeste 20 Noroeste 0 -- -- 47
2020-09-03 18:00:00 29.3 4 Oeste 22 Sur 0 -- -- 34
2020-09-03 17:00:00 29.4 13 Sur 27 Sudoeste 0 -- -- 30
2020-09-03 16:00:00 29.1 14 Sudoeste 22 Sur 0 -- -- 33
2020-09-03 15:00:00 28.5 11 Sur 17 Sudoeste 0 -- -- 35
2020-09-03 14:00:00 26.8 13 Sur 20 Sur 0 -- -- 37
2020-09-03 13:00:00 23.5 2 Norte 8 Sur 0 -- -- 53
2020-09-03 12:00:00 20.1 4 Sudeste 8 Sur 0 -- -- 62
2020-09-03 11:00:00 17.6 4 Sudeste 6 Sur 0 -- -- 67
2020-09-03 10:00:00 15.2 3 Sudeste 5 Sudeste 0 -- -- 73
2020-09-03 09:00:00 8.9 2 Norte 4 Norte 0 -- -- 98
2020-09-03 08:00:00 6.5 0 Calma 5 Norte 0 -- -- 99
2020-09-03 07:00:00 6.8 2 Norte 4 Norte 0 -- -- 100
2020-09-03 06:00:00 7.4 2 Nordeste 5 Norte 0 -- -- 99
2020-09-03 05:00:00 8.1 2 Norte 5 Norte 0 -- -- 99
2020-09-03 04:00:00 8.6 2 Norte 5 Nordeste 0 -- -- 99
2020-09-03 03:00:00 9.6 0 Calma 6 Norte 0 -- -- 98
2020-09-03 02:00:00 10.6 4 Norte 6 Norte 0 -- -- 97
2020-09-03 01:00:00 11.2 3 Norte 6 Norte 0 -- -- 96
2020-09-03 00:00:00 12.2 0 Calma 9 Nordeste 0 -- -- 95
2020-09-02 23:00:00 14.4 5 Norte 12 Norte 0 -- -- 88
2020-09-02 22:00:00 15.2 3 Norte 9 Norte 0 -- -- 86
2020-09-02 21:00:00 18 3 Este 27 Noroeste 0 -- -- 76
2020-09-02 20:00:00 20.5 16 Noroeste 26 Noroeste 0 -- -- 65
2020-09-02 19:00:00 21.1 14 Noroeste 22 Noroeste 0 -- -- 62
2020-09-02 18:00:00 26 8 Noroeste 17 Sur 0 -- -- 46
2020-09-02 17:00:00 26.4 11 Sur 18 Sur 0 -- -- 41
2020-09-02 16:00:00 25.7 13 Sur 18 Sur 0 -- -- 43
2020-09-02 15:00:00 24.7 13 Sur 19 Sur 0 -- -- 45
2020-09-02 14:00:00 23.1 12 Sur 18 Sur 0 -- -- 49
2020-09-02 13:00:00 21.6 12 Sur 20 Sur 0 -- -- 51
2020-09-02 12:00:00 18.6 3 Sur 6 Sur 0 -- -- 63
2020-09-02 11:00:00 15.8 5 Sur 8 Sur 0 -- -- 67
2020-09-02 10:00:00 14 3 Sudeste 6 Nordeste 0 -- -- 70
2020-09-02 09:00:00 8.7 2 Sudoeste 6 Nordeste 0 -- -- 94
2020-09-02 08:00:00 5.2 0 Calma 6 Nordeste 0 -- -- 98
2020-09-02 07:00:00 5.9 2 Nordeste 6 Nordeste 0 -- -- 98
2020-09-02 06:00:00 6.2 2 Norte 5 Norte 0 -- -- 98
2020-09-02 05:00:00 7.1 2 Norte 4 Norte 0 -- -- 98
2020-09-02 04:00:00 7.7 0 Calma 6 Norte 0 -- -- 96
2020-09-02 03:00:00 8.6 4 Norte 7 Norte 0 -- -- 95
2020-09-02 02:00:00 9.4 0 Calma 7 Norte 0 -- -- 94
2020-09-02 01:00:00 11.2 5 Norte 14 Norte 0 -- -- 88
2020-09-02 00:00:00 13.2 6 Norte 10 Norte 0 -- -- 83
2020-09-01 23:00:00 15 5 Norte 9 Norte 0 -- -- 71
2020-09-01 22:00:00 15.2 4 Noroeste 24 Noroeste 0 -- -- 71
2020-09-01 21:00:00 15.3 16 Noroeste 34 Noroeste 0 -- -- 74
2020-09-01 20:00:00 16.2 16 Noroeste 30 Noroeste 0 -- -- 71
2020-09-01 19:00:00 17.6 14 Noroeste 27 Noroeste 0 -- -- 66
2020-09-01 18:00:00 21.2 13 Noroeste 35 Noroeste 0 -- -- 57
2020-09-01 17:00:00 21.5 17 Noroeste 28 Norte 0 -- -- 54
2020-09-01 16:00:00 21.7 16 Noroeste 28 Noroeste 0 -- -- 52
2020-09-01 15:00:00 22.5 11 Noroeste 23 Noroeste 0 -- -- 44
2020-09-01 14:00:00 21.1 16 Noroeste 29 Oeste 0 -- -- 48
2020-09-01 13:00:00 22.2 4 Sudeste 10 Sur 0 -- -- 40
2020-09-01 12:00:00 18.9 3 Sudeste 7 Sudoeste 0 -- -- 56
2020-09-01 11:00:00 16.4 4 Sur 9 Sur 0 -- -- 63
2020-09-01 10:00:00 14.7 4 Sur 6 Sur 0 -- -- 68
2020-09-01 09:00:00 8.5 3 Norte 6 Norte 0 -- -- 96
2020-09-01 08:00:00 7.4 4 Nordeste 10 Nordeste 0 -- -- 96
2020-09-01 07:00:00 7.7 0 Calma 5 Norte 0 -- -- 96
2020-09-01 06:00:00 8.3 2 Norte 5 Norte 0 -- -- 95
2020-09-01 05:00:00 8.4 0 Calma 6 Norte 0 -- -- 94
2020-09-01 04:00:00 8.7 0 Calma 5 Norte 0 -- -- 94
2020-09-01 03:00:00 9.2 2 Nordeste 6 Norte 0 -- -- 92
2020-09-01 02:00:00 9 3 Noroeste 6 Nordeste 0 -- -- 93
2020-09-01 01:00:00 9.5 4 Norte 6 Norte 0 -- -- 91
2020-09-01 00:00:00 9.6 2 Noroeste 5 Norte 0 -- -- 90
2020-08-31 23:00:00 10.7 2 Norte 7 Norte 0 -- -- 84
2020-08-31 22:00:00 11.3 0 Calma 6 Noroeste 0 -- -- 86
2020-08-31 21:00:00 13.7 3 Sudoeste 9 Noroeste 0 -- -- 71
2020-08-31 20:00:00 16.9 0 Calma 10 Oeste 0 -- -- 64
2020-08-31 19:00:00 19.5 3 Sudoeste 11 Sur 0 -- -- 52
2020-08-31 18:00:00 20.9 3 Sur 17 Sur 0 -- -- 44
2020-08-31 17:00:00 20.7 11 Sur 23 Sudeste 0 -- -- 36
2020-08-31 16:00:00 19.6 11 Sur 25 Sur 0 -- -- 38
2020-08-31 15:00:00 20.5 11 Sur 29 Sur 0 -- -- 39
2020-08-31 14:00:00 18.3 20 Sur 31 Sur 0 -- -- 44
2020-08-31 13:00:00 17.9 12 Sur 30 Sur 0 -- -- 42
2020-08-31 12:00:00 15.3 3 Sudeste 7 Sudeste 0 -- -- 60
2020-08-31 11:00:00 12.6 4 Sudeste 7 Sur 0 -- -- 69
2020-08-31 10:00:00 10.4 3 Sudeste 5 Sudeste 0 -- -- 73
2020-08-31 09:00:00 6.2 0 Calma 5 Norte 0 -- -- 92
2020-08-31 08:00:00 1.6 2 Norte 5 Norte 0 -- -- 99
2020-08-31 07:00:00 1.5 2 Norte 5 Norte 0 -- -- 98
2020-08-31 06:00:00 2.2 2 Norte 6 Norte 0 -- -- 99
2020-08-31 05:00:00 2.7 2 Nordeste 5 Nordeste 0 -- -- 98
2020-08-31 04:00:00 3.1 3 Norte 5 Norte 0 -- -- 98
2020-08-31 03:00:00 3.5 2 Norte 5 Norte 0 -- -- 97
2020-08-31 02:00:00 4.7 4 Nordeste 8 Norte 0 -- -- 96
2020-08-31 01:00:00 5.4 5 Norte 9 Norte 0 -- -- 95
2020-08-31 00:00:00 6.4 4 Norte 10 Nordeste 0 -- -- 93
2020-08-30 23:00:00 8.1 7 Nordeste 12 Norte 0 -- -- 89
2020-08-30 22:00:00 9.2 7 Norte 11 Norte 0 -- -- 86
2020-08-30 21:00:00 11.2 7 Noroeste 22 Noroeste 0 -- -- 75
2020-08-30 20:00:00 12.5 14 Noroeste 23 Noroeste 0 -- -- 69
2020-08-30 19:00:00 12.9 13 Noroeste 28 Noroeste 0 -- -- 66
2020-08-30 18:00:00 16.2 13 Noroeste 27 Noroeste 0 -- -- 57
2020-08-30 17:00:00 18 9 Norte 23 Noroeste 0 -- -- 52
2020-08-30 16:00:00 15.9 11 Norte 23 Norte 0 -- -- 57
2020-08-30 15:00:00 16.3 9 Norte 15 Noroeste 0 -- -- 52
2020-08-30 14:00:00 14.3 8 Noroeste 16 Noroeste 0 -- -- 56
2020-08-30 13:00:00 14.3 4 Noroeste 16 Este 0 -- -- 55
2020-08-30 12:00:00 14.5 3 Noroeste 9 Noroeste 0 -- -- 53
2020-08-30 11:00:00 14.9 3 Nordeste 13 Este 0 -- -- 55
2020-08-30 10:00:00 12 3 Nordeste 6 Nordeste 0 -- -- 70
2020-08-30 09:00:00 8 3 Este 8 Noroeste 0 -- -- 96
2020-08-30 08:00:00 6.9 3 Noroeste 9 Nordeste 0 -- -- 97
2020-08-30 07:00:00 7.2 0 Calma 5 Nordeste 0 -- -- 96
2020-08-30 06:00:00 7.5 2 Nordeste 6 Norte 0 -- -- 96
2020-08-30 05:00:00 7.1 3 Norte 6 Noroeste 0 -- -- 96
2020-08-30 04:00:00 7.2 3 Norte 5 Noroeste 0 -- -- 95
2020-08-30 03:00:00 7 3 Norte 6 Norte 0 -- -- 94
2020-08-30 02:00:00 6.6 4 Norte 10 Noroeste 0 -- -- 95
2020-08-30 01:00:00 7.2 3 Norte 9 Norte 0 -- -- 91
2020-08-30 00:00:00 8.8 3 Nordeste 9 Nordeste 0 -- -- 87
2020-08-29 23:00:00 8.1 3 Noroeste 9 Este 0 -- -- 91
2020-08-29 22:00:00 8.8 3 Este 8 Nordeste 0 -- -- 89
2020-08-29 21:00:00 9.7 6 Norte 21 Noroeste 0 -- -- 84
2020-08-29 20:00:00 10.5 10 Noroeste 21 Noroeste 0 -- -- 75
2020-08-29 19:00:00 10.6 7 Norte 23 Noroeste 0.6 -- -- 81
2020-08-29 18:00:00 10.6 12 Norte 36 Noroeste 0.4 -- -- 81
2020-08-29 17:00:00 11 12 Norte 35 Noroeste 0.4 -- -- 82
2020-08-29 16:00:00 12.2 14 Noroeste 41 Noroeste 0.4 -- -- 76
2020-08-29 15:00:00 12.9 11 Noroeste 28 Noroeste 1 -- -- 77
2020-08-29 14:00:00 12.1 11 Noroeste 21 Noroeste 1.8 -- -- 82
2020-08-29 13:00:00 11.4 4 Nordeste 13 Nordeste 1.8 -- -- 85
2020-08-29 12:00:00 9.7 5 Este 21 Noroeste 2 -- -- 91
2020-08-29 11:00:00 9.7 5 Nordeste 31 Oeste 1.4 -- -- 91
2020-08-29 10:00:00 9.3 8 Nordeste 21 Noroeste 1.2 -- -- 89
2020-08-29 09:00:00 9.7 8 Norte 18 Noroeste 0.4 -- -- 86
2020-08-29 08:00:00 9 4 Nordeste 13 Nordeste 0.4 -- -- 90
2020-08-29 07:00:00 9.1 6 Nordeste 27 Noroeste 0.4 -- -- 87
2020-08-29 06:00:00 9.2 2 Sur 9 Este 0.4 -- -- 94
2020-08-29 05:00:00 9.3 3 Sudoeste 11 Oeste 0.2 -- -- 95
2020-08-29 04:00:00 9.1 3 Sudoeste 8 Sur 0.2 -- -- 95
2020-08-29 03:00:00 8.8 3 Sudoeste 8 Sudoeste 0 -- -- 94
2020-08-29 02:00:00 8.6 0 Calma 5 Noroeste 0.2 -- -- 94
2020-08-29 01:00:00 8.3 0 Calma 7 Norte 0 -- -- 95
2020-08-29 00:00:00 8.1 3 Oeste 7 Norte 0 -- -- 95
2020-08-28 23:00:00 8.9 4 Norte 9 Noroeste 0 -- -- 91
2020-08-28 22:00:00 9.8 3 Norte 17 Nordeste 0 -- -- 90
2020-08-28 21:00:00 11 3 Norte 14 Norte 0.6 -- -- 88
2020-08-28 20:00:00 11.5 6 Norte 29 Norte 1.2 -- -- 83
2020-08-28 19:00:00 15 10 Noroeste 30 Noroeste 0 -- -- 57
2020-08-28 18:00:00 16 14 Noroeste 26 Norte 0 -- -- 50
2020-08-28 17:00:00 18.5 6 Noroeste 23 Norte 0 -- -- 43
2020-08-28 16:00:00 16.3 10 Norte 26 Nordeste 0 -- -- 55
2020-08-28 15:00:00 16.7 10 Norte 24 Noroeste 0 -- -- 51
2020-08-28 14:00:00 17.2 7 Noroeste 25 Norte 0 -- -- 50
2020-08-28 13:00:00 16.9 8 Noroeste 21 Noroeste 0 -- -- 54
2020-08-28 12:00:00 16.1 9 Nordeste 19 Norte 0 -- -- 53
2020-08-28 11:00:00 14.5 8 Norte 20 Norte 0 -- -- 61
2020-08-28 10:00:00 14.8 13 Noroeste 26 Noroeste 0 -- -- 62
2020-08-28 09:00:00 13.2 0 Calma 8 Sur 0 -- -- 79
2020-08-28 08:00:00 9.8 2 Norte 5 Sur 0 -- -- 92
2020-08-28 07:00:00 11 3 Noroeste 8 Norte 0 -- -- 90
2020-08-28 06:00:00 13.3 6 Norte 16 Noroeste 0 -- -- 84
2020-08-28 05:00:00 14.6 7 Noroeste 18 Noroeste 0 -- -- 82
2020-08-28 04:00:00 15.7 5 Noroeste 15 Noroeste 0 -- -- 80
2020-08-28 03:00:00 15.9 4 Sur 7 Noroeste 0 -- -- 86
2020-08-28 02:00:00 16.7 3 Sudeste 9 Sur 0 -- -- 81
2020-08-28 01:00:00 16.4 3 Sudoeste 7 Sur 0 -- -- 83
2020-08-28 00:00:00 16.2 3 Este 8 Norte 0 -- -- 82
2020-08-27 23:00:00 16.7 4 Sur 9 Sur 0 -- -- 81
2020-08-27 22:00:00 18 2 Sur 20 Noroeste 0 -- -- 74
2020-08-27 21:00:00 20.2 10 Noroeste 22 Oeste 0 -- -- 63
2020-08-27 20:00:00 21 6 Noroeste 26 Norte 0 -- -- 54
2020-08-27 19:00:00 23.4 9 Norte 30 Noroeste 0 -- -- 47
2020-08-27 18:00:00 26.3 14 Noroeste 31 Noroeste 0 -- -- 45
2020-08-27 17:00:00 26.6 17 Noroeste 32 Noroeste 0 -- -- 49
2020-08-27 16:00:00 25.6 10 Noroeste 19 Noroeste 0 -- -- 52
2020-08-27 15:00:00 28.9 12 Sudoeste 24 Sudoeste 0 -- -- 47
2020-08-27 14:00:00 27.7 10 Sudoeste 16 Sudoeste 0 -- -- 50
2020-08-27 13:00:00 26.1 9 Sur 15 Sur 0 -- -- 50
2020-08-27 12:00:00 23.5 3 Sur 7 Sudoeste 0 -- -- 61
2020-08-27 11:00:00 21.1 3 Sudeste 7 Sudeste 0 -- -- 66
2020-08-27 10:00:00 16.7 3 Sur 8 Sur 0 -- -- 82
2020-08-27 09:00:00 11.8 2 Este 4 Este 0 -- -- 98
2020-08-27 08:00:00 10.5 3 Norte 6 Nordeste 0 -- -- 99
2020-08-27 07:00:00 10.1 0 Calma 6 Nordeste 0 -- -- 99
2020-08-27 06:00:00 11 4 Noroeste 5 Noroeste 0 -- -- 99
2020-08-27 05:00:00 11.7 4 Norte 7 Nordeste 0 -- -- 99
2020-08-27 04:00:00 12.5 3 Nordeste 6 Norte 0 -- -- 98
2020-08-27 03:00:00 13.3 5 Norte 8 Norte 0 -- -- 98
2020-08-27 02:00:00 13.6 0 Calma 5 Norte 0 -- -- 97
2020-08-27 01:00:00 14.9 0 Calma 5 Norte 0 -- -- 95
2020-08-27 00:00:00 16 2 Este 7 Norte 0 -- -- 92
2020-08-26 23:00:00 17.2 0 Calma 4 Sur 0 -- -- 89
2020-08-26 22:00:00 18.6 2 Sur 6 Este 0 -- -- 83
2020-08-26 21:00:00 22.3 3 Sur 23 Norte 0 -- -- 66
2020-08-26 20:00:00 23.5 10 Noroeste 24 Norte 0 -- -- 60
2020-08-26 19:00:00 25.3 13 Noroeste 26 Noroeste 0 -- -- 58
2020-08-26 18:00:00 28.3 10 Noroeste 22 Sur 0 -- -- 49
2020-08-26 17:00:00 29.3 10 Sur 23 Sur 0 -- -- 44
2020-08-26 16:00:00 29.9 10 Sur 21 Sudoeste 0 -- -- 43
2020-08-26 15:00:00 29.4 10 Sur 17 Sur 0 -- -- 44
2020-08-26 14:00:00 28 5 Sudeste 13 Sur 0 -- -- 48
2020-08-26 13:00:00 25.7 8 Sur 11 Sudeste 0 -- -- 49
2020-08-26 12:00:00 22.6 3 Sudeste -- -- -- -- -- 59
2020-08-26 11:00:00 -- 5 Sur 7 Sur 0 -- -- --
2020-08-26 10:00:00 18.1 3 Sudeste 5 Sudeste 0 -- -- 67
2020-08-26 09:00:00 13.7 2 Este 8 Nordeste 0 -- -- 90
2020-08-26 08:00:00 8.6 0 Calma 6 Nordeste 0 -- -- 99
2020-08-26 07:00:00 9.1 3 Norte 5 Oeste 0 -- -- 98
2020-08-26 06:00:00 9.6 4 Norte 9 Norte 0 -- -- 98
2020-08-26 05:00:00 10 3 Norte 6 Norte 0 -- -- 98
2020-08-26 04:00:00 10.8 2 Oeste 8 Norte 0 -- -- 97
2020-08-26 03:00:00 11.5 3 Nordeste 6 Norte 0 -- -- 96
2020-08-26 02:00:00 13.2 4 Norte 6 Norte 0 -- -- 93
2020-08-26 01:00:00 13.9 2 Este 9 Norte 0 -- -- 91
2020-08-26 00:00:00 14.6 3 Norte 10 Nordeste 0 -- -- 92
2020-08-25 23:00:00 16.1 3 Norte 7 Norte 0 -- -- 86
2020-08-25 22:00:00 18.5 4 Oeste 15 Noroeste 0 -- -- 76
2020-08-25 21:00:00 21 6 Noroeste 19 Noroeste 0 -- -- 64
2020-08-25 20:00:00 23.1 8 Noroeste 17 Noroeste 0 -- -- 46
2020-08-25 19:00:00 24.5 9 Noroeste 24 Norte 0 -- -- 41
2020-08-25 18:00:00 27.2 9 Noroeste 22 Noroeste 0 -- -- 41
2020-08-25 17:00:00 29.9 8 Sur 17 Sur 0 -- -- 39
2020-08-25 16:00:00 28.6 12 Sudoeste 26 Sur 0 -- -- 41
2020-08-25 15:00:00 28 13 Sudoeste 28 Sur 0 -- -- 39
2020-08-25 14:00:00 26.7 16 Sudoeste 24 Sudoeste 0 -- -- 40
2020-08-25 13:00:00 25.4 13 Sudoeste 21 Sur 0 -- -- 41
2020-08-25 12:00:00 22.2 3 Sur 8 Sur 0 -- -- 53
2020-08-25 11:00:00 19.8 3 Sudeste 6 Sudeste 0 -- -- 63
2020-08-25 10:00:00 16.6 3 Sudeste 5 Sudeste 0 -- -- 72
2020-08-25 09:00:00 12.9 0 Calma 4 Norte 0 -- -- 92
2020-08-25 08:00:00 7.4 0 Calma 4 Noroeste 0 -- -- 99
2020-08-25 07:00:00 8.4 4 Norte 6 Norte 0 -- -- 99
2020-08-25 06:00:00 8.5 3 Norte 5 Noroeste 0 -- -- 99
2020-08-25 05:00:00 9.1 2 Norte 6 Norte 0 -- -- 98
2020-08-25 04:00:00 9.5 0 Calma 4 Norte 0 -- -- 98
2020-08-25 03:00:00 10.2 2 Norte 6 Norte 0 -- -- 97
2020-08-25 02:00:00 10.6 0 Calma 5 Norte 0 -- -- 96
2020-08-25 01:00:00 11.6 3 Noroeste 5 Noroeste 0 -- -- 95
2020-08-25 00:00:00 12.7 3 Nordeste 5 Este 0 -- -- 92
2020-08-24 23:00:00 13.5 4 Norte 7 Este 0 -- -- 87
2020-08-24 22:00:00 15 0 Calma 4 Este 0 -- -- 77
2020-08-24 21:00:00 17.2 0 Calma 6 Sur 0 -- -- 71
2020-08-24 20:00:00 19.9 3 Sur 6 Sudoeste 0 -- -- 52
2020-08-24 19:00:00 23.6 4 Oeste 11 Sudoeste 0 -- -- 34
2020-08-24 18:00:00 28.7 5 Oeste 26 Sur 0 -- -- 31
2020-08-24 17:00:00 28.1 16 Sur 30 Sur 0 -- -- 35
2020-08-24 16:00:00 27 18 Sudoeste 33 Sur 0 -- -- 38
2020-08-24 15:00:00 26.2 22 Sur 30 Sur 0 -- -- 39
2020-08-24 14:00:00 25 14 Sur 23 Sur 0 -- -- 38
2020-08-24 13:00:00 22.7 5 Sur 8 Sur 0 -- -- 35
2020-08-24 12:00:00 19.6 4 Sur 10 Sur 0 -- -- 57
2020-08-24 11:00:00 18.2 3 Sudeste 10 Nordeste 0 -- -- 58
2020-08-24 10:00:00 15.4 4 Este 10 Nordeste 0 -- -- 70
2020-08-24 09:00:00 11 5 Nordeste 14 Nordeste 0 -- -- 85
2020-08-24 08:00:00 10.6 7 Norte 14 Nordeste 0 -- -- 90
2020-08-24 07:00:00 11.1 6 Norte 12 Norte 0 -- -- 86
2020-08-24 06:00:00 11.2 5 Norte 8 Norte 0 -- -- 88
2020-08-24 05:00:00 11 3 Norte 9 Norte 0 -- -- 90
2020-08-24 04:00:00 11.8 0 Calma 4 Norte 0 -- -- 95
2020-08-24 03:00:00 10.9 3 Norte 6 Norte 0 -- -- 96
2020-08-24 02:00:00 12 2 Norte 6 Norte 0 -- -- 93
2020-08-24 01:00:00 13.2 6 Norte 10 Norte 0 -- -- 88
2020-08-24 00:00:00 13.8 3 Norte 9 Norte 0 -- -- 89
2020-08-23 23:00:00 15.5 2 Norte 16 Oeste 0 -- -- 85
2020-08-23 22:00:00 17.4 11 Noroeste 30 Noroeste 0 -- -- 77
2020-08-23 21:00:00 18 14 Noroeste 31 Noroeste 0 -- -- 76
2020-08-23 20:00:00 19.2 18 Noroeste 32 Noroeste 0 -- -- 72
2020-08-23 19:00:00 21.9 10 Noroeste 26 Noroeste 0 -- -- 59
2020-08-23 18:00:00 24.5 14 Noroeste 28 Noroeste 0 -- -- 51
2020-08-23 17:00:00 24.5 13 Noroeste 26 Noroeste 0 -- -- 49
2020-08-23 16:00:00 26.2 8 Noroeste 18 Noroeste 0 -- -- 39
2020-08-23 15:00:00 25.8 10 Norte 17 Noroeste 0 -- -- 37
2020-08-23 14:00:00 25.3 5 Sur 17 Sur 0 -- -- 29
2020-08-23 13:00:00 21.8 12 Sur 16 Sur 0 -- -- 38
2020-08-23 12:00:00 19.4 4 Sur 8 Sur 0 -- -- 51
2020-08-23 11:00:00 15.8 4 Sur 9 Sur 0 -- -- 61
2020-08-23 10:00:00 14 3 Sudeste 5 Sudeste 0 -- -- 69
2020-08-23 09:00:00 12.1 0 Calma 7 Norte 0 -- -- 77
2020-08-23 08:00:00 6.3 4 Nordeste 7 Norte 0 -- -- 97
2020-08-23 07:00:00 6.5 4 Norte 9 Norte 0 -- -- 96
2020-08-23 06:00:00 6.8 3 Norte 8 Norte 0 -- -- 96
2020-08-23 05:00:00 7.3 4 Norte 9 Nordeste 0 -- -- 95
2020-08-23 04:00:00 8.5 4 Norte 8 Norte 0 -- -- 95
2020-08-23 03:00:00 8.9 2 Nordeste 6 Norte 0 -- -- 96
2020-08-23 02:00:00 9.8 2 Norte 8 Norte 0 -- -- 93
2020-08-23 01:00:00 11.1 4 Norte 12 Norte 0 -- -- 92
2020-08-23 00:00:00 12.5 8 Norte 11 Norte 0 -- -- 90
2020-08-22 23:00:00 14.4 3 Sur 21 Noroeste 0 -- -- 83
2020-08-22 22:00:00 16.2 15 Noroeste 30 Noroeste 0 -- -- 75
2020-08-22 21:00:00 17.5 17 Noroeste 31 Noroeste 0 -- -- 70
2020-08-22 20:00:00 19.1 13 Noroeste 24 Noroeste 0 -- -- 63
2020-08-22 19:00:00 21 11 Noroeste 19 Noroeste 0 -- -- 51
2020-08-22 18:00:00 22.8 11 Noroeste 24 Noroeste 0 -- -- 47
2020-08-22 17:00:00 26.2 8 Sudoeste 16 Sur 0 -- -- 37
2020-08-22 16:00:00 25.3 10 Sur 19 Sudoeste 0 -- -- 35
2020-08-22 15:00:00 24.5 13 Sudoeste 24 Sudoeste 0 -- -- 33
2020-08-22 14:00:00 23.1 12 Sudoeste 19 Sur 0 -- -- 36
2020-08-22 13:00:00 21.4 4 Sudeste 9 Sur 0 -- -- 46
2020-08-22 12:00:00 17.1 5 Sur 9 Sur 0 -- -- 65
2020-08-22 11:00:00 14.9 4 Sudeste 6 Noroeste -- -- -- 71
2020-08-22 10:00:00 9.5 4 Noroeste 9 Noroeste 0 -- -- 91
2020-08-22 09:00:00 9.2 4 Norte 8 Norte 0 -- -- 92
2020-08-22 08:00:00 8.9 5 Norte 9 Norte 0 -- -- 95
2020-08-22 07:00:00 8.7 6 Norte 8 Norte 0 -- -- 96
2020-08-22 06:00:00 8.8 2 Norte 6 Noroeste 0 -- -- 97
2020-08-22 05:00:00 8.5 4 Norte 6 Noroeste 0 -- -- 98
2020-08-22 04:00:00 8.4 2 Nordeste 6 Noroeste 0 -- -- 98
2020-08-22 03:00:00 8.7 4 Norte 8 Norte 0 -- -- 97
2020-08-22 02:00:00 10.1 3 Norte 6 Nordeste 0 -- -- 96
2020-08-22 01:00:00 10.5 0 Calma 5 Norte 0 -- -- 95
2020-08-22 00:00:00 12.1 0 Calma 5 Norte 0 -- -- 92
2020-08-21 23:00:00 13.6 2 Norte 12 Norte 0 -- -- 86
2020-08-21 22:00:00 14.5 3 Noroeste 11 Norte 0 -- -- 83
2020-08-21 21:00:00 16.8 7 Noroeste 13 Norte 0 -- -- 72
2020-08-21 20:00:00 18.5 5 Sudoeste 21 Sur 0 -- -- 63
2020-08-21 19:00:00 20.8 11 Sur 42 Sur 0 -- -- 50
2020-08-21 18:00:00 22.8 17 Sur 42 Sur 0 -- -- 45
2020-08-21 17:00:00 23.1 21 Sur 36 Sur 0 -- -- 47
2020-08-21 16:00:00 23.3 18 Sur 32 Sur 0 -- -- 48
2020-08-21 15:00:00 22.3 18 Sur 35 Sur 0 -- -- 49
2020-08-21 14:00:00 21 20 Sur 35 Sur 0 -- -- 51
2020-08-21 13:00:00 19.8 18 Sur 31 Sur 0 -- -- 55
2020-08-21 12:00:00 19.1 10 Sur 22 Sur 0 -- -- 52
2020-08-21 11:00:00 17.1 2 Sur 6 Sur 0 -- -- 57
2020-08-21 10:00:00 13.3 3 Sudeste 6 Sur 0 -- -- 67
2020-08-21 09:00:00 10.6 3 Este 6 Norte 0 -- -- 79
2020-08-21 08:00:00 6.2 3 Nordeste 8 Norte 0 -- -- 92
2020-08-21 07:00:00 6.4 3 Norte 6 Norte 0 -- -- 95
2020-08-21 06:00:00 6.7 2 Sudeste 8 Norte 0 -- -- 95
2020-08-21 05:00:00 8.2 3 Nordeste 7 Norte 0 -- -- 91
2020-08-21 04:00:00 8.8 0 Calma 5 Norte 0 -- -- 95
2020-08-21 03:00:00 10.3 3 Norte 9 Norte 0 -- -- 92
2020-08-21 02:00:00 12 5 Norte 6 Norte 0 -- -- 88
2020-08-21 01:00:00 14 4 Noroeste 25 Sudoeste 0 -- -- 78
2020-08-21 00:00:00 16.5 6 Oeste 20 Sur 0 -- -- 66
2020-08-20 23:00:00 17.6 10 Sur 25 Sur 0 -- -- 67
2020-08-20 22:00:00 19.1 11 Sudoeste 37 Sur 0.2 -- -- 63
2020-08-20 21:00:00 20.3 18 Sur 32 Sudoeste 0 -- -- 64
2020-08-20 20:00:00 21 10 Sudoeste 45 Sudoeste 0 -- -- 63
2020-08-20 19:00:00 22.5 17 Sur 53 Sur 0 -- -- 61
2020-08-20 18:00:00 23.4 19 Sudoeste 50 Sur 0 -- -- 57
2020-08-20 17:00:00 23.8 25 Sur 71 Sur 0.2 -- -- 54
2020-08-20 16:00:00 24.6 24 Sur 60 Sur 0 -- -- 54
2020-08-20 15:00:00 24.7 24 Sur 48 Sur 0.2 -- -- 55
2020-08-20 14:00:00 24.5 14 Sur 39 Sur 0 -- -- 57
2020-08-20 13:00:00 22.7 19 Sur 40 Sur 0 -- -- 64
2020-08-20 12:00:00 21.1 20 Sur 36 Sur 0.2 -- -- 67
2020-08-20 11:00:00 20.5 14 Sudoeste 36 Sur 0 -- -- 73
2020-08-20 10:00:00 18.5 13 Sur 30 Sur 0 -- -- 84
2020-08-20 09:00:00 16.5 4 Nordeste 9 Este 0.2 -- -- 96
2020-08-20 08:00:00 16 3 Norte 6 Norte 0 -- -- 96
2020-08-20 07:00:00 16 4 Norte 10 Este 0 -- -- 96
2020-08-20 06:00:00 16 5 Norte 11 Nordeste 0.2 -- -- 97
2020-08-20 05:00:00 15.9 3 Norte 9 Noroeste 0.4 -- -- 97
2020-08-20 04:00:00 15.9 3 Noroeste 6 Norte 0.2 -- -- 97
2020-08-20 03:00:00 16.1 3 Sudeste 23 Sur 0.6 -- -- 96
2020-08-20 02:00:00 16.1 3 Norte 14 Sudoeste 1.8 -- -- 95
2020-08-20 01:00:00 16.7 3 Noroeste 26 Sudoeste 0 -- -- 91
2020-08-20 00:00:00 18.4 14 Sudoeste 38 Sur 0 -- -- 79